Time;durP1;ratioP1;P1;durP2;ratioP2;P2;SDS_P1;SDS_P2;PMS_P1;PMS_P2;Temp;Humidity;BMP_temperature;BMP_pressure;BME280_temperature;BME280_humidity;BME280_pressure;Samples;Min_cycle;Max_cycle;Signal;HPM_P1;HPM_P2
2021/08/18 00:01:20;;;;;;;22.00;8.87;;;;;;;13.50;100.00;100769.56;2619108;47;20198;-50
2021/08/18 00:03:50;;;;;;;30.67;9.33;;;;;;;13.43;100.00;100773.63;2618108;46;20432;-54
2021/08/18 00:06:20;;;;;;;20.07;8.20;;;;;;;13.41;100.00;100772.72;2619436;39;20774;-54
2021/08/18 00:08:52;;;;;;;22.57;9.03;;;;;;;13.48;100.00;100776.38;2637885;36;20448;-53
2021/08/18 00:11:21;;;;;;;21.80;9.10;;;;;;;13.48;100.00;100774.69;2617800;47;20455;-52
2021/08/18 00:13:51;;;;;;;19.87;8.47;;;;;;;13.45;100.00;100773.69;2617147;47;20408;-52
2021/08/18 00:16:22;;;;;;;18.53;8.60;;;;;;;13.41;100.00;100777.00;2617816;47;20431;-53
2021/08/18 00:18:52;;;;;;;23.60;9.33;;;;;;;13.36;100.00;100785.53;2621816;36;20773;-52
2021/08/18 00:21:22;;;;;;;24.47;8.23;;;;;;;13.33;100.00;100780.25;2617695;47;20462;-54
2021/08/18 00:23:54;;;;;;;24.80;9.70;;;;;;;13.40;100.00;100783.03;2617249;47;20419;-53
2021/08/18 00:26:26;;;;;;;19.50;9.20;;;;;;;13.47;100.00;100790.19;2617888;47;20424;-53
2021/08/18 00:28:56;;;;;;;28.37;9.93;;;;;;;13.40;100.00;100785.63;2617565;47;20411;-52
2021/08/18 00:31:27;;;;;;;24.97;9.27;;;;;;;13.35;100.00;100775.97;2617799;47;20451;-52
2021/08/18 00:33:56;;;;;;;32.38;9.65;;;;;;;13.31;100.00;100776.75;2617080;47;20420;-50
2021/08/18 00:36:26;;;;;;;24.20;10.03;;;;;;;13.41;100.00;100777.00;2617302;47;20407;-55
2021/08/18 00:38:58;;;;;;;24.63;9.10;;;;;;;13.35;100.00;100775.97;2617146;47;20438;-52
2021/08/18 00:41:29;;;;;;;21.38;8.77;;;;;;;13.36;100.00;100780.34;2618865;47;20463;-52
2021/08/18 00:43:58;;;;;;;22.47;9.87;;;;;;;13.37;100.00;100776.03;2622299;36;20194;-52
2021/08/18 00:46:28;;;;;;;24.20;9.40;;;;;;;13.41;100.00;100782.19;2619431;39;20731;-49
2021/08/18 00:48:57;;;;;;;22.45;9.30;;;;;;;13.31;100.00;100779.34;2635493;36;20580;-49
2021/08/18 00:51:27;;;;;;;25.93;8.70;;;;;;;13.31;100.00;100787.09;2617737;47;20641;-51
2021/08/18 00:53:59;;;;;;;22.23;9.23;;;;;;;13.42;100.00;100784.84;2617268;47;20408;-54
2021/08/18 00:56:28;;;;;;;21.42;9.15;;;;;;;13.42;100.00;100784.84;2618407;46;20408;-49
2021/08/18 00:58:58;;;;;;;25.42;8.23;;;;;;;13.38;100.00;100782.97;2617844;46;20163;-53
2021/08/18 01:01:27;;;;;;;21.60;9.68;;;;;;;13.41;100.00;100774.41;2618520;46;20187;-50
2021/08/18 01:03:57;;;;;;;25.47;9.70;;;;;;;13.43;100.00;100775.38;2618434;39;20533;-51
2021/08/18 01:06:27;;;;;;;21.83;8.43;;;;;;;13.41;100.00;100777.91;2618376;46;20414;-51
2021/08/18 01:08:59;;;;;;;25.87;9.77;;;;;;;13.52;100.00;100780.84;2620868;36;20451;-53
2021/08/18 01:11:28;;;;;;;20.03;8.93;;;;;;;13.49;100.00;100783.34;2618507;46;20466;-52
2021/08/18 01:13:58;;;;;;;21.80;8.30;;;;;;;13.42;100.00;100779.66;2639054;36;20981;-53
2021/08/18 01:16:27;;;;;;;23.87;9.13;;;;;;;13.55;100.00;100775.75;2619905;39;20737;-52
2021/08/18 01:18:57;;;;;;;22.87;9.00;;;;;;;13.50;100.00;100780.78;2636547;36;20592;-53
2021/08/18 01:21:26;;;;;;;20.83;10.07;;;;;;;13.55;100.00;100770.59;2619332;47;20933;-50
2021/08/18 01:23:58;;;;;;;22.95;8.73;;;;;;;13.63;100.00;100773.38;2636682;36;20474;-54
2021/08/18 01:26:29;;;;;;;16.70;6.87;;;;;;;13.61;100.00;100773.34;2620073;39;20527;-51
2021/08/18 01:29:02;;;;;;;17.50;7.60;;;;;;;13.62;100.00;100762.16;2621236;36;20479;-53
2021/08/18 01:31:32;;;;;;;23.40;8.88;;;;;;;13.59;100.00;100771.53;2619723;46;20459;-53
2021/08/18 01:34:02;;;;;;;20.98;8.02;;;;;;;13.63;100.00;100766.50;2621468;36;20210;-49
2021/08/18 01:36:32;;;;;;;21.37;7.93;;;;;;;13.61;100.00;100768.16;2619132;47;20617;-49
2021/08/18 01:39:03;;;;;;;22.83;10.30;;;;;;;13.64;100.00;100767.34;2639363;36;21048;-51
2021/08/18 01:41:33;;;;;;;22.53;8.73;;;;;;;13.59;100.00;100767.22;2619484;47;20442;-51
2021/08/18 01:44:05;;;;;;;18.88;8.30;;;;;;;13.52;100.00;100769.63;2622586;36;20466;-53
2021/08/18 01:46:38;;;;;;;19.13;7.90;;;;;;;13.57;100.00;100757.66;2619498;46;20162;-51
2021/08/18 01:49:07;;;;;;;21.37;8.30;;;;;;;13.58;100.00;100765.47;2619675;36;20481;-50
2021/08/18 01:51:37;;;;;;;25.70;9.48;;;;;;;13.64;100.00;100769.94;2619491;47;20462;-51
2021/08/18 01:54:06;;;;;;;21.23;8.40;;;;;;;13.65;100.00;100763.94;2626429;36;20191;-52
2021/08/18 01:56:36;;;;;;;19.60;8.20;;;;;;;13.60;100.00;100763.78;2619307;46;20420;-54
2021/08/18 01:59:08;;;;;;;17.17;8.67;;;;;;;13.63;100.00;100758.72;2637003;36;20456;-51
2021/08/18 02:01:40;;;;;;;22.53;9.33;;;;;;;13.65;100.00;100766.53;2619571;46;20447;-53
2021/08/18 02:04:10;;;;;;;21.70;9.20;;;;;;;13.70;100.00;100757.16;2636469;36;20605;-53
2021/08/18 02:06:39;;;;;;;25.17;9.17;;;;;;;13.74;100.00;100752.97;2618797;46;20917;-50
2021/08/18 02:09:09;;;;;;;19.83;8.20;;;;;;;13.75;100.00;100746.94;2636097;36;20459;-55
2021/08/18 02:11:38;;;;;;;18.47;8.73;;;;;;;13.72;100.00;100737.38;2618406;39;20748;-51
2021/08/18 02:14:11;;;;;;;18.60;8.60;;;;;;;13.81;100.00;100736.75;2619258;36;20455;-53
2021/08/18 02:16:40;;;;;;;16.63;7.90;;;;;;;13.66;100.00;100733.69;2620678;36;20427;-50
2021/08/18 02:19:10;;;;;;;24.70;9.40;;;;;;;13.67;100.00;100735.47;2618156;46;20427;-52
2021/08/18 02:21:39;;;;;;;18.90;8.10;;;;;;;13.59;100.00;100730.94;2617962;47;20447;-52
2021/08/18 02:24:09;;;;;;;20.53;8.27;;;;;;;13.59;100.00;100730.94;2618477;36;20463;-49
2021/08/18 02:26:39;;;;;;;22.03;9.57;;;;;;;13.61;100.00;100729.28;2617831;46;20431;-55
2021/08/18 02:29:11;;;;;;;18.10;9.07;;;;;;;13.58;100.00;100734.38;2635293;36;20460;-48
2021/08/18 02:31:40;;;;;;;21.17;8.60;;;;;;;13.43;100.00;100726.13;2621743;36;20743;-51
2021/08/18 02:34:12;;;;;;;24.58;9.05;;;;;;;13.42;100.00;100724.34;2619210;46;20167;-52
2021/08/18 02:36:41;;;;;;;23.53;9.80;;;;;;;13.42;100.00;100726.94;2619096;46;20167;-50
2021/08/18 02:39:11;;;;;;;14.20;7.18;;;;;;;13.31;100.00;100724.03;2621029;36;20455;-52
2021/08/18 02:41:40;;;;;;;26.97;8.57;;;;;;;13.42;100.00;100722.63;2618039;47;20243;-52
2021/08/18 02:44:13;;;;;;;62.57;17.40;;;;;;;13.37;100.00;100725.09;2621748;36;20447;-50
2021/08/18 02:46:42;;;;;;;96.47;9.60;;;;;;;13.34;100.00;100719.81;2619193;46;20415;-50
2021/08/18 02:49:12;;;;;;;19.33;9.20;;;;;;;13.22;100.00;100714.25;2636537;36;20463;-52
2021/08/18 02:51:41;;;;;;;21.43;9.23;;;;;;;13.26;100.00;100718.72;2619388;46;20465;-50
2021/08/18 02:54:11;;;;;;;22.77;9.43;;;;;;;13.27;100.00;100717.88;2620028;36;20447;-53
2021/08/18 02:56:40;;;;;;;22.40;8.70;;;;;;;13.23;100.00;100713.47;2636216;36;20410;-53
2021/08/18 02:59:13;;;;;;;20.13;8.40;;;;;;;13.22;100.00;100725.50;2617731;46;20431;-49
2021/08/18 03:01:42;;;;;;;16.70;8.87;;;;;;;13.22;100.00;100716.84;2617940;47;20457;-52
2021/08/18 03:04:12;;;;;;;21.90;9.30;;;;;;;13.19;100.00;100716.78;2635970;36;20447;-51
2021/08/18 03:06:42;;;;;;;18.97;9.00;;;;;;;13.18;100.00;100717.63;2618621;39;20763;-52
2021/08/18 03:09:11;;;;;;;20.47;10.00;;;;;;;13.17;100.00;100711.53;2618860;47;20440;-52
2021/08/18 03:11:41;;;;;;;23.10;10.07;;;;;;;13.09;100.00;100708.72;2618826;54;20456;-51
2021/08/18 03:14:13;;;;;;;20.47;8.53;;;;;;;13.09;100.00;100715.63;2620184;36;20448;-55
2021/08/18 03:16:42;;;;;;;18.90;8.63;;;;;;;13.08;100.00;100709.53;2619013;39;20806;-50
2021/08/18 03:19:12;;;;;;;18.17;7.43;;;;;;;13.01;100.00;100714.47;2617603;46;20414;-50
2021/08/18 03:21:43;;;;;;;20.73;9.37;;;;;;;13.09;100.00;100713.88;2618823;46;20457;-52
2021/08/18 03:24:13;;;;;;;24.05;10.40;;;;;;;13.02;100.00;100709.34;2621784;36;20785;-53
2021/08/18 03:26:42;;;;;;;18.73;8.70;;;;;;;13.01;100.00;100709.31;2618710;47;20158;-51
2021/08/18 03:29:15;;;;;;;19.30;8.00;;;;;;;13.02;100.00;100701.59;2636884;31;20934;-51
2021/08/18 03:31:44;;;;;;;19.27;9.43;;;;;;;13.09;100.00;100702.66;2618650;47;20453;-52
2021/08/18 03:34:14;;;;;;;24.10;11.48;;;;;;;13.06;100.00;100706.03;2618423;46;20435;-48
2021/08/18 03:36:43;;;;;;;26.27;12.10;;;;;;;13.04;100.00;100705.13;2618335;47;20609;-55
2021/08/18 03:39:13;;;;;;;22.80;11.40;;;;;;;13.04;100.00;100705.13;2619143;39;20466;-52
2021/08/18 03:41:42;;;;;;;21.17;11.20;;;;;;;12.99;100.00;100696.31;2618711;46;20469;-50
2021/08/18 03:44:14;;;;;;;24.93;11.23;;;;;;;12.98;100.00;100694.56;2636182;36;20949;-49
2021/08/18 03:46:44;;;;;;;24.80;11.30;;;;;;;12.97;100.00;100700.56;2618523;46;20426;-50
2021/08/18 03:49:13;;;;;;;23.63;11.53;;;;;;;13.08;100.00;100701.78;2618418;46;20431;-52
2021/08/18 03:51:43;;;;;;;22.70;13.20;;;;;;;12.98;100.00;100699.75;2617600;47;20455;-52
2021/08/18 03:54:12;;;;;;;25.38;12.30;;;;;;;13.12;100.00;100709.66;2635940;36;20777;-49
2021/08/18 03:56:42;;;;;;;25.90;13.07;;;;;;;13.00;100.00;100702.38;2639876;36;20158;-53
2021/08/18 03:59:11;;;;;;;23.60;11.60;;;;;;;13.05;100.00;100699.09;2618058;46;20438;-50
2021/08/18 04:01:43;;;;;;;25.42;12.43;;;;;;;13.07;100.00;100700.03;2618486;46;20459;-50
2021/08/18 04:04:13;;;;;;;30.35;12.43;;;;;;;13.05;100.00;100696.50;2620327;36;20195;-50
2021/08/18 04:06:43;;;;;;;19.77;11.65;;;;;;;13.02;100.00;100704.19;2636792;36;20158;-49
2021/08/18 04:09:12;;;;;;;25.53;12.57;;;;;;;13.06;100.00;100705.16;2618235;47;20661;-50
2021/08/18 04:11:42;;;;;;;21.50;11.23;;;;;;;13.07;100.00;100702.63;2618466;46;20456;-51
2021/08/18 04:14:11;;;;;;;23.02;11.65;;;;;;;13.19;100.00;100709.00;2621865;36;20455;-51
2021/08/18 04:16:44;;;;;;;26.07;12.50;;;;;;;13.26;100.00;100705.75;2618462;47;20163;-49
2021/08/18 04:19:13;;;;;;;27.77;12.50;;;;;;;13.17;100.00;100702.91;2636361;36;20460;-50
2021/08/18 04:21:42;;;;;;;24.83;11.93;;;;;;;13.14;100.00;100700.22;2618102;47;20462;-53
2021/08/18 04:24:13;;;;;;;26.13;12.47;;;;;;;13.22;100.00;100709.97;2636199;36;20474;-49
2021/08/18 04:26:42;;;;;;;24.13;12.37;;;;;;;13.21;100.00;100705.63;2620219;36;20435;-51
2021/08/18 04:29:12;;;;;;;25.50;12.73;;;;;;;13.23;100.00;100706.53;2617314;47;20400;-51
2021/08/18 04:31:44;;;;;;;27.10;12.53;;;;;;;13.38;100.00;100702.63;2636878;36;20929;-51
2021/08/18 04:34:13;;;;;;;24.65;12.60;;;;;;;13.33;100.00;100702.50;2618097;47;20440;-52
2021/08/18 04:36:42;;;;;;;22.07;10.30;;;;;;;13.28;100.00;100708.41;2618405;47;20155;-51
2021/08/18 04:39:12;;;;;;;25.60;11.52;;;;;;;13.30;100.00;100706.72;2635779;36;20461;-51
2021/08/18 04:41:41;;;;;;;28.33;12.07;;;;;;;13.42;100.00;100701.91;2618124;47;20189;-52
2021/08/18 04:44:11;;;;;;;25.73;10.50;;;;;;;13.30;100.00;100702.44;2621360;36;20451;-51
2021/08/18 04:46:40;;;;;;;22.93;9.90;;;;;;;13.40;100.00;100713.06;2618320;47;20428;-50
2021/08/18 04:49:12;;;;;;;27.47;12.40;;;;;;;13.54;100.00;100704.00;2635270;36;21717;-51
2021/08/18 04:51:42;;;;;;;22.47;10.70;;;;;;;13.46;100.00;100702.91;2635603;36;20455;-49
2021/08/18 04:54:11;;;;;;;22.50;10.20;;;;;;;13.57;100.00;100696.31;2617712;47;20431;-49
2021/08/18 04:56:41;;;;;;;22.77;11.10;;;;;;;13.53;100.00;100694.47;2618139;47;20412;-50
2021/08/18 04:59:10;;;;;;;22.50;11.60;;;;;;;13.53;100.00;100703.97;2619399;36;20770;-50
2021/08/18 05:01:40;;;;;;;22.03;11.00;;;;;;;13.66;100.00;100695.72;2640766;36;20778;-48
2021/08/18 05:04:09;;;;;;;18.43;10.17;;;;;;;13.66;100.00;100684.44;2617410;47;20428;-50
2021/08/18 05:06:41;;;;;;;24.77;10.82;;;;;;;13.56;100.00;100680.72;2618374;47;20435;-53
2021/08/18 05:09:11;;;;;;;22.53;10.47;;;;;;;13.62;100.00;100678.31;2618994;36;20197;-52
2021/08/18 05:11:40;;;;;;;20.57;10.90;;;;;;;13.77;100.00;100677.84;2639670;36;20458;-51
2021/08/18 05:14:10;;;;;;;20.38;9.93;;;;;;;13.70;100.00;100681.13;2617491;47;20427;-52
2021/08/18 05:16:39;;;;;;;16.30;9.07;;;;;;;13.71;100.00;100675.09;2618155;47;20160;-55
2021/08/18 05:19:09;;;;;;;21.70;10.50;;;;;;;13.82;100.00;100671.09;2618567;47;20426;-51
2021/08/18 05:21:38;;;;;;;20.27;10.23;;;;;;;13.75;100.00;100674.34;2619087;36;20191;-50
2021/08/18 05:24:11;;;;;;;21.40;11.03;;;;;;;13.84;100.00;100664.22;2618963;39;20505;-51
2021/08/18 05:26:40;;;;;;;20.90;9.90;;;;;;;13.77;100.00;100667.47;2618187;47;20428;-50
2021/08/18 05:29:10;;;;;;;17.90;9.87;;;;;;;13.81;100.00;100677.09;2620057;36;20488;-51
2021/08/18 05:31:39;;;;;;;20.85;10.10;;;;;;;13.90;100.00;100661.78;2638241;36;20446;-52
2021/08/18 05:34:09;;;;;;;18.53;10.30;;;;;;;13.95;100.00;100661.03;2617958;47;20167;-51
2021/08/18 05:36:38;;;;;;;24.40;11.90;;;;;;;14.13;100.00;100658.03;2626969;36;20415;-52
2021/08/18 05:39:10;;;;;;;22.53;11.00;;;;;;;14.14;100.00;100658.06;2618095;39;20428;-51
2021/08/18 05:41:40;;;;;;;20.13;10.30;;;;;;;14.04;100.00;100651.78;2618585;47;20459;-52
2021/08/18 05:44:10;;;;;;;16.00;9.98;;;;;;;14.14;100.00;100649.41;2636697;36;20230;-52
2021/08/18 05:46:39;;;;;;;15.63;8.40;;;;;;;14.11;100.00;100652.78;2637160;36;20164;-53
2021/08/18 05:49:09;;;;;;;32.50;11.03;;;;;;;14.15;100.00;100639.06;2617843;46;20436;-50
2021/08/18 05:51:38;;;;;;;80.03;23.47;;;;;;;14.18;100.00;100636.56;2619182;47;20447;-51
2021/08/18 05:54:10;;;;;;;49.23;15.70;;;;;;;14.39;100.00;100631.84;2635716;36;20472;-50
2021/08/18 05:56:40;;;;;;;50.20;17.43;;;;;;;14.34;100.00;100629.16;2618087;46;20383;-55
2021/08/18 05:59:09;;;;;;;65.57;22.87;;;;;;;14.41;100.00;100633.63;2619601;31;20411;-52
2021/08/18 06:01:39;;;;;;;33.33;11.57;;;;;;;14.39;100.00;100630.13;2618145;47;20435;-51
2021/08/18 06:04:08;;;;;;;42.67;13.30;;;;;;;14.39;100.00;100629.25;2620359;36;20555;-49
2021/08/18 06:06:38;;;;;;;53.37;18.67;;;;;;;14.65;100.00;100631.59;2625710;36;20719;-52
2021/08/18 06:09:07;;;;;;;20.57;10.67;;;;;;;14.57;100.00;100624.50;2619430;31;20428;-52
2021/08/18 06:11:41;;;;;;;20.02;9.18;;;;;;;14.50;100.00;100626.94;2619891;39;20856;-52
2021/08/18 06:14:10;;;;;;;18.50;9.77;;;;;;;14.47;100.00;100629.44;2621564;36;20187;-53
2021/08/18 06:16:40;;;;;;;20.57;9.30;;;;;;;14.60;100.00;100634.06;2619094;47;20403;-51
2021/08/18 06:19:09;;;;;;;23.87;11.13;;;;;;;14.64;100.00;100638.50;2621937;36;20894;-51
2021/08/18 06:21:39;;;;;;;38.77;13.50;;;;;;;14.52;100.00;100627.84;2624259;36;20448;-49
2021/08/18 06:24:15;;;;;;;20.13;9.23;;;;;;;14.64;100.00;100628.13;2619384;47;20428;-51
2021/08/18 06:26:47;;;;;;;20.40;8.33;;;;;;;14.58;100.00;100638.38;2625478;36;20391;-54
2021/08/18 06:29:17;;;;;;;21.17;7.87;;;;;;;14.51;100.00;100639.06;2620066;39;20734;-48
2021/08/18 06:31:46;;;;;;;26.80;10.93;;;;;;;14.57;100.00;100636.63;2624097;36;20914;-49
2021/08/18 06:34:16;;;;;;;21.43;8.67;;;;;;;14.53;100.00;100637.38;2619313;47;20408;-50
2021/08/18 06:36:45;;;;;;;14.93;8.27;;;;;;;14.51;100.00;100646.84;2639771;36;20421;-52
2021/08/18 06:39:36;;;;;;;18.63;8.00;;;;;;;14.20;100.00;100654.75;2619113;47;20901;-53
2021/08/18 06:42:08;;;;;;;10.13;5.53;;;;;;;14.22;100.00;100657.38;2618808;46;20458;-49
2021/08/18 06:44:37;;;;;;;25.23;10.03;;;;;;;14.31;100.00;100655.03;2636136;36;20970;-48
2021/08/18 06:47:07;;;;;;;14.23;6.83;;;;;;;14.26;100.00;100656.63;2618731;39;20698;-49
2021/08/18 06:49:37;;;;;;;15.03;7.43;;;;;;;14.29;100.00;100672.25;2636768;36;20440;-49
2021/08/18 06:52:07;;;;;;;13.07;5.60;;;;;;;14.41;100.00;100648.34;2624433;36;20914;-49
2021/08/18 06:54:37;;;;;;;10.33;5.60;;;;;;;14.51;100.00;100658.09;2619232;47;20143;-49
2021/08/18 06:57:09;;;;;;;8.80;5.50;;;;;;;14.63;100.00;100656.63;2618558;47;20416;-56
2021/08/18 06:59:38;;;;;;;12.00;6.10;;;;;;;14.93;100.00;100659.09;2618211;46;20155;-55
2021/08/18 07:02:08;;;;;;;11.85;5.80;;;;;;;14.91;100.00;100658.19;2618889;46;20448;-50
2021/08/18 07:04:37;;;;;;;6.70;4.37;;;;;;;14.83;100.00;100664.94;2619089;47;20200;-53
2021/08/18 07:07:08;;;;;;;8.43;4.63;;;;;;;14.81;100.00;100657.09;2636797;36;20427;-51
2021/08/18 07:09:37;;;;;;;8.73;4.80;;;;;;;14.68;100.00;100649.84;2618815;46;20416;-54
2021/08/18 07:12:10;;;;;;;7.77;3.67;;;;;;;14.68;100.00;100653.28;2618452;47;20446;-50
2021/08/18 07:14:40;;;;;;;7.00;3.97;;;;;;;14.70;100.00;100650.75;2619211;47;21120;-51
2021/08/18 07:17:09;;;;;;;10.10;5.75;;;;;;;14.55;100.00;100659.94;2618326;46;20415;-52
2021/08/18 07:19:39;;;;;;;8.03;3.43;;;;;;;14.51;100.00;100662.44;2619500;39;20489;-54
2021/08/18 07:22:08;;;;;;;6.23;4.17;;;;;;;14.56;100.00;100664.28;2641218;36;20512;-51
2021/08/18 07:24:38;;;;;;;10.73;5.10;;;;;;;14.70;100.00;100666.31;2619108;39;20942;-51
2021/08/18 07:27:10;;;;;;;16.80;6.70;;;;;;;14.70;100.00;100666.31;2618101;47;20439;-55
2021/08/18 07:29:39;;;;;;;34.17;16.63;;;;;;;14.62;100.00;100668.75;2618246;46;20901;-51
2021/08/18 07:32:09;;;;;;;14.40;7.23;;;;;;;14.60;100.00;100670.44;2622272;36;20895;-52
2021/08/18 07:34:39;;;;;;;26.40;11.23;;;;;;;14.62;100.00;100673.97;2617931;47;20408;-51
2021/08/18 07:37:08;;;;;;;15.43;7.77;;;;;;;14.57;100.00;100671.22;2618290;47;20418;-49
2021/08/18 07:39:38;;;;;;;16.60;8.37;;;;;;;14.53;100.00;100663.34;2618927;47;20890;-52
2021/08/18 07:42:11;;;;;;;13.20;6.57;;;;;;;14.80;100.00;100675.25;2626719;36;20436;-52
2021/08/18 07:44:41;;;;;;;16.30;6.57;;;;;;;14.58;100.00;100691.16;2619410;47;20158;-52
2021/08/18 07:47:10;;;;;;;14.90;7.80;;;;;;;14.65;100.00;100689.59;2618419;36;20677;-53
2021/08/18 07:49:40;;;;;;;22.40;9.93;;;;;;;14.61;100.00;100679.97;2619102;46;20415;-52
2021/08/18 07:52:10;;;;;;;22.07;7.20;;;;;;;14.67;100.00;100685.31;2618176;47;20438;-56
2021/08/18 07:54:39;;;;;;;21.05;10.45;;;;;;;14.66;100.00;100688.75;2636576;36;20474;-53
2021/08/18 07:57:11;;;;;;;14.47;7.87;;;;;;;14.67;100.00;100684.44;2627459;36;20205;-54
2021/08/18 07:59:41;;;;;;;33.83;15.20;;;;;;;14.68;100.00;100681.84;2619703;39;20711;-51
2021/08/18 08:02:10;;;;;;;18.47;9.30;;;;;;;14.85;100.00;100679.72;2618142;47;20458;-52
2021/08/18 08:04:40;;;;;;;11.43;5.93;;;;;;;14.92;100.00;100685.06;2618725;47;20395;-53
2021/08/18 08:07:10;;;;;;;16.60;9.70;;;;;;;15.15;100.00;100692.47;2629790;36;20427;-51
2021/08/18 08:09:39;;;;;;;11.60;6.80;;;;;;;15.19;100.00;100684.78;2619025;47;20408;-53
2021/08/18 08:12:12;;;;;;;10.73;5.87;;;;;;;15.32;100.00;100680.72;2618703;39;20837;-50
2021/08/18 08:14:41;;;;;;;23.15;10.32;;;;;;;15.47;100.00;100685.34;2618027;47;20426;-57
2021/08/18 08:17:11;;;;;;;17.93;9.10;;;;;;;15.60;100.00;100670.00;2618747;47;20151;-53
2021/08/18 08:19:40;;;;;;;16.27;8.20;;;;;;;15.55;100.00;100667.31;2618930;47;20401;-52
2021/08/18 08:22:10;;;;;;;15.40;8.50;;;;;;;15.71;100.00;100658.09;2618587;47;20437;-54
2021/08/18 08:24:39;;;;;;;15.35;6.28;;;;;;;15.70;100.00;100651.13;2619735;39;20761;-52
2021/08/18 08:27:08;;;;;;;16.13;8.50;;;;;;;16.11;100.00;100651.88;2618148;54;20166;-52
2021/08/18 08:29:41;;;;;;;14.20;6.13;;;;;;;16.13;100.00;100640.66;2618372;39;21138;-54
2021/08/18 08:32:10;;;;;;;24.63;10.23;;;;;;;15.91;100.00;100644.56;2618428;46;20446;-54
2021/08/18 08:34:40;;;;;;;18.65;9.23;;;;;;;15.90;100.00;100632.41;2617538;47;20404;-53
2021/08/18 08:37:10;;;;;;;10.60;4.67;;;;;;;15.78;100.00;100633.94;2618884;36;20197;-49
2021/08/18 08:39:39;;;;;;;18.13;8.43;;;;;;;15.66;100.00;100638.91;2617877;47;20418;-50
2021/08/18 08:42:09;;;;;;;17.70;7.57;;;;;;;15.70;100.00;100639.84;2623709;36;20451;-51
2021/08/18 08:44:41;;;;;;;13.00;5.20;;;;;;;15.71;100.00;100636.38;2618267;47;20166;-50
2021/08/18 08:47:11;;;;;;;20.00;8.33;;;;;;;15.35;100.00;100653.91;2617428;47;20387;-51
2021/08/18 08:49:41;;;;;;;15.73;6.77;;;;;;;15.42;100.00;100650.59;2618358;39;20712;-50
2021/08/18 08:52:10;;;;;;;49.50;20.20;;;;;;;15.31;100.00;100662.47;2618046;47;20463;-52
2021/08/18 08:54:42;;;;;;;29.03;11.80;;;;;;;15.19;100.00;100664.00;2618859;47;20439;-52
2021/08/18 08:57:12;;;;;;;64.43;25.60;;;;;;;15.35;100.00;100672.09;2619492;36;20492;-52
2021/08/18 08:59:44;;;;;;;51.55;22.00;;;;;;;15.32;100.00;100685.03;2618981;47;20151;-50
2021/08/18 09:02:15;;;;;;;46.45;20.48;;;;;;;15.44;100.00;100685.28;2620813;36;20240;-56
2021/08/18 09:04:46;;;;;;;18.17;7.90;;;;;;;15.31;100.00;100683.28;2619034;47;20234;-51
2021/08/18 09:07:17;;;;;;;31.07;13.20;;;;;;;15.46;100.00;100693.13;2619782;36;20778;-52
2021/08/18 09:09:53;;;;;;;13.20;7.43;;;;;;;15.45;100.00;100687.06;2617822;47;20423;-49
2021/08/18 09:12:29;;;;;;;13.07;7.20;;;;;;;15.40;100.00;100683.47;2618276;47;20450;-53
2021/08/18 09:15:15;;;;;;;18.73;6.60;;;;;;;15.36;100.00;100699.84;2618958;47;20407;-54
2021/08/18 09:17:45;;;;;;;17.63;6.97;;;;;;;15.49;100.00;100693.19;2640126;36;20899;-54
2021/08/18 09:20:17;;;;;;;23.07;11.23;;;;;;;15.68;100.00;100683.16;2618247;47;20930;-55
2021/08/18 09:22:48;;;;;;;39.75;19.52;;;;;;;15.64;100.00;100698.69;2624883;36;20459;-54
2021/08/18 09:25:21;;;;;;;40.00;19.20;;;;;;;15.71;100.00;100681.50;2618478;46;20250;-54
2021/08/18 09:27:54;;;;;;;88.30;30.60;;;;;;;15.85;100.00;100681.72;2617926;47;20424;-53
2021/08/18 09:30:29;;;;;;;148.20;38.47;;;;;;;15.59;100.00;100687.31;2617962;47;20929;-54
2021/08/18 09:32:59;;;;;;;72.57;27.23;;;;;;;15.70;100.00;100682.34;2636022;36;20607;-53
2021/08/18 09:35:30;;;;;;;31.55;12.60;;;;;;;15.85;100.00;100670.47;2618215;39;20761;-54
2021/08/18 09:38:02;;;;;;;27.00;10.20;;;;;;;15.84;100.00;100656.56;2617801;54;20936;-52
2021/08/18 09:40:35;;;;;;;41.00;17.93;;;;;;;15.75;100.00;100653.81;2618240;47;20414;-51
2021/08/18 09:43:13;;;;;;;13.03;6.73;;;;;;;15.78;100.00;100664.25;2623543;36;20447;-50
2021/08/18 09:45:46;;;;;;;22.53;12.10;;;;;;;15.64;100.00;100671.81;2619348;47;20403;-56
2021/08/18 09:48:17;;;;;;;25.20;10.53;;;;;;;15.65;100.00;100679.63;2639124;31;20902;-51
2021/08/18 09:50:52;;;;;;;26.17;13.13;;;;;;;15.74;100.00;100673.72;2619527;46;20402;-52
2021/08/18 09:53:24;;;;;;;15.27;6.93;;;;;;;15.93;100.00;100668.91;2619283;36;20450;-52
2021/08/18 09:55:56;;;;;;;15.82;6.75;;;;;;;15.80;100.00;100666.03;2619271;46;20152;-53
2021/08/18 09:58:28;;;;;;;21.00;8.20;;;;;;;15.85;100.00;100660.06;2636679;36;20202;-51
2021/08/18 10:01:02;;;;;;;11.27;6.30;;;;;;;15.82;100.00;100660.00;2619335;46;20458;-53
2021/08/18 10:03:33;;;;;;;12.93;5.70;;;;;;;15.83;100.00;100651.38;2622970;36;20461;-52
2021/08/18 10:06:04;;;;;;;10.73;5.70;;;;;;;15.94;100.00;100649.84;2619361;46;20468;-54
2021/08/18 10:08:34;;;;;;;12.47;6.40;;;;;;;15.83;100.00;100644.41;2617399;46;20429;-52
2021/08/18 10:11:04;;;;;;;23.43;10.27;;;;;;;16.04;100.00;100643.97;2619465;46;20451;-52
2021/08/18 10:13:34;;;;;;;12.73;6.10;;;;;;;16.10;100.00;100629.31;2636784;36;20499;-51
2021/08/18 10:16:08;;;;;;;15.33;6.10;;;;;;;15.98;100.00;100645.56;2619464;39;20720;-52
2021/08/18 10:18:39;;;;;;;13.43;7.37;;;;;;;16.14;100.00;100629.38;2622908;36;20443;-54
2021/08/18 10:21:11;;;;;;;13.20;5.33;;;;;;;15.99;100.00;100635.19;2619862;39;20769;-54
2021/08/18 10:23:50;;;;;;;15.10;6.23;;;;;;;16.15;100.00;100625.06;2635672;36;20455;-52
2021/08/18 10:26:50;;;;;;;14.40;7.67;;;;;;;16.15;100.00;100635.47;2617749;47;20452;-51
2021/08/18 10:29:30;;;;;;;15.13;6.83;;;;;;;16.19;100.00;100648.56;2620527;36;20772;-54
2021/08/18 10:32:04;;;;;;;13.97;6.43;;;;;;;16.21;100.00;100638.19;2621085;36;20763;-51
2021/08/18 10:34:38;;;;;;;12.43;6.60;;;;;;;16.12;100.00;100632.81;2617582;47;21141;-50
2021/08/18 10:37:25;;;;;;;18.93;6.13;;;;;;;16.16;100.00;100639.81;2617217;47;20447;-54
2021/08/18 10:39:55;;;;;;;9.90;5.37;;;;;;;16.14;100.00;100633.69;2619147;46;20433;-55
2021/08/18 10:42:36;;;;;;;13.53;7.67;;;;;;;16.36;100.00;100629.72;2618101;54;20988;-52
2021/08/18 10:45:36;;;;;;;13.13;6.93;;;;;;;16.28;100.00;100637.44;2618938;46;20933;-50
2021/08/18 10:48:10;;;;;;;15.18;6.55;;;;;;;16.51;100.00;100630.84;2618320;47;20524;-52
2021/08/18 10:50:47;;;;;;;13.40;5.33;;;;;;;16.46;100.00;100638.56;2619085;46;20163;-52
2021/08/18 10:53:30;;;;;;;12.70;5.83;;;;;;;16.62;100.00;100631.88;2622133;36;20453;-51
2021/08/18 10:56:00;;;;;;;14.87;6.37;;;;;;;16.70;100.00;100637.16;2618620;46;20435;-55
2021/08/18 10:58:31;;;;;;;12.23;7.00;;;;;;;16.66;100.00;100643.22;2621624;36;20470;-54
2021/08/18 11:01:01;;;;;;;12.20;6.50;;;;;;;16.79;100.00;100637.31;2619064;47;20950;-50
2021/08/18 11:03:34;;;;;;;18.07;6.37;;;;;;;16.98;100.00;100629.75;2618989;39;20748;-51
2021/08/18 11:06:08;;;;;;;10.80;6.90;;;;;;;17.05;100.00;100634.22;2619038;46;20420;-53
2021/08/18 11:08:49;;;;;;;16.30;6.65;;;;;;;17.03;100.00;100628.13;2618862;47;20412;-54
2021/08/18 11:11:20;;;;;;;20.17;7.50;;;;;;;17.17;100.00;100623.06;2619246;47;20197;-53
2021/08/18 11:13:54;;;;;;;13.05;6.20;;;;;;;17.06;100.00;100630.75;2617475;47;20910;-53
2021/08/18 11:16:26;;;;;;;15.00;5.90;;;;;;;16.97;100.00;100615.00;2618987;47;20159;-49
2021/08/18 11:19:00;;;;;;;22.00;8.63;;;;;;;17.08;100.00;100625.56;2618476;47;20489;-56
2021/08/18 11:21:31;;;;;;;24.77;12.03;;;;;;;17.09;100.00;100609.97;2619376;47;20471;-52
2021/08/18 11:24:02;;;;;;;25.70;11.67;;;;;;;16.87;100.00;100635.69;2639259;36;20930;-52